createdAt,value
2019-05-01T00:00:33.984Z,101623.39
2019-05-01T00:02:16.203Z,101628.33
2019-05-01T00:03:48.976Z,101627.98
2019-05-01T00:05:09.715Z,101624.56
2019-05-01T00:06:16.422Z,101630.48
2019-05-01T00:07:32.395Z,101627.45
2019-05-01T00:08:37.582Z,101628.05
2019-05-01T00:09:42.786Z,101629.47
2019-05-01T00:10:48.018Z,101631.27
2019-05-01T00:11:53.744Z,101629.13
2019-05-01T00:12:59.101Z,101631.40
2019-05-01T00:14:04.614Z,101631.02
2019-05-01T00:15:10.322Z,101627.51
2019-05-01T00:16:15.930Z,101625.45
2019-05-01T00:17:21.838Z,101628.58
2019-05-01T00:18:27.067Z,101620.73
2019-05-01T00:19:32.520Z,101624.34
2019-05-01T00:20:37.981Z,101620.44
2019-05-01T00:21:43.523Z,101614.88
2019-05-01T00:22:48.783Z,101618.86
2019-05-01T00:23:53.830Z,101616.80
2019-05-01T00:24:59.105Z,101615.95
2019-05-01T00:26:07.862Z,101612.56
2019-05-01T00:27:13.198Z,101617.50
2019-05-01T00:28:18.715Z,101613.25
2019-05-01T00:29:23.840Z,101613.47
2019-05-01T00:30:30.475Z,101613.19
2019-05-01T00:31:35.768Z,101608.09
2019-05-01T00:32:41.064Z,101610.02
2019-05-01T00:33:46.431Z,101609.63
2019-05-01T00:34:51.747Z,101604.06
2019-05-01T00:35:56.938Z,101599.69
2019-05-01T00:37:02.080Z,101607.79
2019-05-01T00:38:07.396Z,101603.89
2019-05-01T00:39:13.744Z,101606.20
2019-05-01T00:40:19.207Z,101609.33
2019-05-01T00:41:24.246Z,101606.77
2019-05-01T00:42:29.456Z,101608.09
2019-05-01T00:43:34.442Z,101606.39
2019-05-01T00:44:39.579Z,101608.31
2019-05-01T00:45:45.134Z,101604.92
2019-05-01T00:46:50.349Z,101602.83
2019-05-01T00:47:55.590Z,101603.52
2019-05-01T00:49:01.023Z,101602.31
2019-05-01T00:50:06.254Z,101599.75
2019-05-01T00:51:11.299Z,101602.53
2019-05-01T00:52:16.757Z,101605.28
2019-05-01T00:53:22.323Z,101597.05
2019-05-01T00:54:28.055Z,101603.69
2019-05-01T00:56:01.096Z,101599.92
2019-05-01T00:57:14.116Z,101592.05
2019-05-01T00:58:35.681Z,101594.82
2019-05-01T00:59:48.857Z,101590.89
2019-05-01T01:01:07.582Z,101590.55
2019-05-01T01:02:37.462Z,101590.76
2019-05-01T01:03:44.362Z,101596.54
2019-05-01T01:04:49.649Z,101594.09
2019-05-01T01:05:54.942Z,101595.90
2019-05-01T01:06:59.990Z,101602.63
2019-05-01T01:08:05.533Z,101592.98
2019-05-01T01:09:10.778Z,101589.56
2019-05-01T01:10:16.085Z,101592.69
2019-05-01T01:11:21.681Z,101586.17
2019-05-01T01:12:27.185Z,101585.31
2019-05-01T01:13:32.596Z,101592.34
2019-05-01T01:14:37.792Z,101592.81
2019-05-01T01:15:42.870Z,101596.80
2019-05-01T01:16:48.031Z,101593.75
2019-05-01T01:17:53.165Z,101590.72
2019-05-01T01:18:58.674Z,101596.41
2019-05-01T01:20:04.278Z,101596.53
2019-05-01T01:21:09.585Z,101592.17
2019-05-01T01:22:15.067Z,101592.64
2019-05-01T01:23:21.020Z,101585.73
2019-05-01T01:24:26.369Z,101595.50
2019-05-01T01:25:31.560Z,101596.09
2019-05-01T01:26:37.001Z,101592.20
2019-05-01T01:27:42.290Z,101592.30
2019-05-01T01:28:47.466Z,101591.47
2019-05-01T01:29:52.785Z,101591.94
2019-05-01T01:30:57.955Z,101589.76
2019-05-01T01:32:03.113Z,101583.98
2019-05-01T01:33:08.686Z,101587.96
2019-05-01T01:34:13.761Z,101584.92
2019-05-01T01:35:19.120Z,101579.83
2019-05-01T01:36:24.134Z,101578.11
2019-05-01T01:37:29.407Z,101580.77
2019-05-01T01:38:34.463Z,101576.05
2019-05-01T01:39:39.640Z,101576.52
2019-05-01T01:40:45.335Z,101577.47
2019-05-01T01:41:51.009Z,101572.66
2019-05-01T01:42:58.700Z,101578.06
2019-05-01T01:44:13.425Z,101574.67
2019-05-01T01:45:24.770Z,101576.94
2019-05-01T01:46:31.181Z,101577.03
2019-05-01T01:47:38.814Z,101572.31
2019-05-01T01:48:47.482Z,101578.56
2019-05-01T01:49:53.342Z,101576.38
2019-05-01T01:50:58.684Z,101575.56
2019-05-01T01:52:04.222Z,101574.23
2019-05-01T01:53:10.361Z,101583.52
2019-05-01T01:54:15.984Z,101574.23
2019-05-01T01:55:21.243Z,101573.85
2019-05-01T01:56:26.759Z,101572.52
2019-05-01T01:57:32.389Z,101567.30
2019-05-01T01:58:37.688Z,101566.95
2019-05-01T01:59:43.346Z,101565.72
2019-05-01T02:01:09.312Z,101567.05
2019-05-01T02:02:19.531Z,101562.80
2019-05-01T02:03:25.073Z,101567.84
2019-05-01T02:04:58.755Z,101565.39
2019-05-01T02:06:04.023Z,101565.48
2019-05-01T02:07:09.223Z,101566.92
2019-05-01T02:08:14.575Z,101569.66
2019-05-01T02:09:20.213Z,101564.48
2019-05-01T02:10:25.648Z,101563.23
2019-05-01T02:11:31.267Z,101570.34
2019-05-01T02:12:37.759Z,101566.56
2019-05-01T02:13:43.779Z,101566.19
2019-05-01T02:14:49.327Z,101563.66
2019-05-01T02:15:54.561Z,101557.58
2019-05-01T02:17:02.561Z,101565.06
2019-05-01T02:18:07.995Z,101558.16
2019-05-01T02:19:13.161Z,101544.46
2019-05-01T02:20:18.448Z,101557.78
2019-05-01T02:21:23.795Z,101558.28
2019-05-01T02:22:29.493Z,101559.61
2019-05-01T02:23:34.551Z,101558.38
2019-05-01T02:24:39.975Z,101554.86
2019-05-01T02:25:45.169Z,101553.53
2019-05-01T02:26:54.141Z,101556.58
2019-05-01T02:28:18.296Z,101555.63
2019-05-01T02:29:29.379Z,101554.39
2019-05-01T02:30:34.966Z,101557.05
2019-05-01T02:31:43.927Z,101552.21
2019-05-01T02:32:51.443Z,101554.86
2019-05-01T02:33:57.332Z,101554.86
2019-05-01T02:35:03.210Z,101550.42
2019-05-01T02:36:10.318Z,101546.91
2019-05-01T02:37:18.358Z,101546.44
2019-05-01T02:38:23.770Z,101548.23
2019-05-01T02:39:31.026Z,101550.80
2019-05-01T02:40:55.412Z,101544.52
2019-05-01T02:42:02.677Z,101551.45
2019-05-01T02:43:11.247Z,101540.84
2019-05-01T02:44:25.025Z,101546.88
2019-05-01T02:45:31.312Z,101550.48
2019-05-01T02:46:37.772Z,101542.98
2019-05-01T02:47:44.684Z,101541.31
2019-05-01T02:48:55.906Z,101542.72
2019-05-01T02:50:10.396Z,101537.54
2019-05-01T02:51:16.463Z,101535.75
2019-05-01T02:52:25.110Z,101541.31
2019-05-01T02:53:33.635Z,101536.48
2019-05-01T02:54:40.165Z,101538.55
2019-05-01T02:55:49.917Z,101545.47
2019-05-01T02:56:59.331Z,101540.25
2019-05-01T02:58:04.610Z,101541.96
2019-05-01T02:59:14.965Z,101538.45
2019-05-01T03:00:20.212Z,101533.62
2019-05-01T03:01:25.829Z,101537.98
2019-05-01T03:02:32.092Z,101536.75
2019-05-01T03:03:37.479Z,101531.91
2019-05-01T03:04:43.739Z,101535.89
2019-05-01T03:05:49.519Z,101538.55
2019-05-01T03:06:54.961Z,101540.25
2019-05-01T03:08:00.615Z,101537.02
2019-05-01T03:09:08.608Z,101532.95
2019-05-01T03:10:14.077Z,101535.48
2019-05-01T03:11:19.589Z,101531.50
2019-05-01T03:12:27.890Z,101535.48
2019-05-01T03:13:33.444Z,101535.48
2019-05-01T03:14:42.036Z,101536.80
2019-05-01T03:15:47.731Z,101540.43
2019-05-01T03:16:56.202Z,101538.72
2019-05-01T03:18:20.915Z,101538.34
2019-05-01T03:19:44.612Z,101535.69
2019-05-01T03:20:58.228Z,101534.01
2019-05-01T03:22:09.678Z,101530.59
2019-05-01T03:23:27.489Z,101530.59
2019-05-01T03:24:33.066Z,101532.68
2019-05-01T03:25:38.732Z,101527.17
2019-05-01T03:26:44.014Z,101527.52
2019-05-01T03:27:49.303Z,101529.61
2019-05-01T03:28:55.114Z,101528.67
2019-05-01T03:30:00.710Z,101525.81
2019-05-01T03:31:06.638Z,101523.04
2019-05-01T03:32:17.903Z,101524.63
2019-05-01T03:33:19.481Z,101524.92
2019-05-01T03:34:24.667Z,101519.97
2019-05-01T03:35:30.138Z,101527.25
2019-05-01T03:36:35.408Z,101520.52
2019-05-01T03:37:41.059Z,101524.38
2019-05-01T03:38:46.421Z,101525.15
2019-05-01T03:39:51.693Z,101522.49
2019-05-01T03:40:57.116Z,101524.64
2019-05-01T03:42:02.703Z,101518.87
2019-05-01T03:43:08.405Z,101517.45
2019-05-01T03:44:13.753Z,101527.68
2019-05-01T03:45:19.300Z,101520.10
2019-05-01T03:46:24.912Z,101528.53
2019-05-01T03:47:30.681Z,101519.72
2019-05-01T03:48:36.147Z,101519.63
2019-05-01T03:49:41.743Z,101519.63
2019-05-01T03:50:48.678Z,101524.34
2019-05-01T03:51:53.941Z,101523.75
2019-05-01T03:52:59.176Z,101527.73
2019-05-01T03:54:04.490Z,101525.72
2019-05-01T03:55:09.800Z,101522.51
2019-05-01T03:56:15.755Z,101525.04
2019-05-01T03:57:21.521Z,101518.19
2019-05-01T03:58:26.685Z,101517.72
2019-05-01T03:59:31.999Z,101520.63
2019-05-01T04:00:51.309Z,101520.63
2019-05-01T04:02:04.236Z,101521.39
2019-05-01T04:03:21.077Z,101523.10
2019-05-01T04:04:28.305Z,101521.78
2019-05-01T04:05:33.503Z,101524.78
2019-05-01T04:06:38.994Z,101513.69
2019-05-01T04:07:45.471Z,101514.55
2019-05-01T04:08:50.951Z,101514.55
2019-05-01T04:09:56.178Z,101512.75
2019-05-01T04:11:01.792Z,101521.82
2019-05-01T04:12:07.638Z,101517.37
2019-05-01T04:13:12.930Z,101522.67
2019-05-01T04:14:18.525Z,101515.28
2019-05-01T04:15:23.729Z,101514.80
2019-05-01T04:16:29.938Z,101513.09
2019-05-01T04:17:49.313Z,101515.88
2019-05-01T04:18:56.466Z,101524.78
2019-05-01T04:20:01.926Z,101511.34
2019-05-01T04:21:09.159Z,101514.38
2019-05-01T04:22:15.096Z,101519.69
2019-05-01T04:23:20.534Z,101519.21
2019-05-01T04:24:25.936Z,101515.14
2019-05-01T04:25:31.618Z,101515.40
2019-05-01T04:26:37.483Z,101517.58
2019-05-01T04:27:45.665Z,101517.58
2019-05-01T04:28:56.844Z,101515.28
2019-05-01T04:30:10.958Z,101515.19
2019-05-01T04:31:30.844Z,101518.31
2019-05-01T04:32:50.981Z,101517.84
2019-05-01T04:33:44.033Z,101518.57
2019-05-01T04:35:00.970Z,101521.23
2019-05-01T04:36:10.689Z,101520.88
2019-05-01T04:37:16.702Z,101518.22
2019-05-01T04:38:22.236Z,101521.23
2019-05-01T04:39:27.788Z,101519.05
2019-05-01T04:40:33.067Z,101515.66
2019-05-01T04:41:38.323Z,101520.59
2019-05-01T04:42:44.106Z,101522.30
2019-05-01T04:43:49.695Z,101524.56
2019-05-01T04:44:55.583Z,101526.28
2019-05-01T04:46:01.253Z,101524.86
2019-05-01T04:47:08.718Z,101525.97
2019-05-01T04:48:14.100Z,101528.50
2019-05-01T04:49:20.002Z,101527.65
2019-05-01T04:50:25.417Z,101524.14
2019-05-01T04:51:31.083Z,101525.12
2019-05-01T04:52:36.513Z,101520.66
2019-05-01T04:53:42.015Z,101523.31
2019-05-01T04:54:47.302Z,101527.30
2019-05-01T04:55:53.573Z,101530.77
2019-05-01T04:56:59.297Z,101531.16
2019-05-01T04:58:05.242Z,101528.50
2019-05-01T04:59:10.632Z,101529.36
2019-05-01T05:00:16.378Z,101525.84
2019-05-01T05:01:22.255Z,101525.75
2019-05-01T05:02:33.767Z,101529.27
2019-05-01T05:03:39.165Z,101527.94
2019-05-01T05:04:44.637Z,101528.50
2019-05-01T05:05:49.905Z,101528.72
2019-05-01T05:06:55.772Z,101526.92
2019-05-01T05:08:01.277Z,101529.58
2019-05-01T05:09:06.510Z,101525.59
2019-05-01T05:10:11.782Z,101526.92
2019-05-01T05:11:22.516Z,101530.42
2019-05-01T05:12:41.524Z,101524.64
2019-05-01T05:14:14.975Z,101527.65
2019-05-01T05:15:47.084Z,101525.47
2019-05-01T05:16:56.324Z,101526.19
2019-05-01T05:18:02.042Z,101527.22
2019-05-01T05:19:07.499Z,101522.98
2019-05-01T05:20:14.018Z,101527.81
2019-05-01T05:21:19.419Z,101526.88
2019-05-01T05:22:24.933Z,101525.55
2019-05-01T05:23:31.820Z,101527.81
2019-05-01T05:24:37.423Z,101527.44
2019-05-01T05:25:43.083Z,101526.37
2019-05-01T05:26:49.013Z,101528.45
2019-05-01T05:27:54.684Z,101528.63
2019-05-01T05:29:01.379Z,101534.58
2019-05-01T05:30:06.765Z,101528.29
2019-05-01T05:31:14.166Z,101530.00
2019-05-01T05:32:21.364Z,101530.38
2019-05-01T05:33:29.670Z,101535.09
2019-05-01T05:34:36.433Z,101530.64
2019-05-01T05:35:43.521Z,101527.86
2019-05-01T05:36:51.610Z,101531.84
2019-05-01T05:38:09.017Z,101534.50
2019-05-01T05:39:24.142Z,101530.52
2019-05-01T05:40:31.824Z,101534.14
2019-05-01T05:41:38.890Z,101531.84
2019-05-01T05:42:44.329Z,101535.48
2019-05-01T05:43:49.538Z,101530.04
2019-05-01T05:44:54.968Z,101541.05
2019-05-01T05:46:00.403Z,101540.09
2019-05-01T05:47:06.031Z,101537.91
2019-05-01T05:48:11.359Z,101540.09
2019-05-01T05:49:17.018Z,101536.67
2019-05-01T05:50:24.397Z,101542.97
2019-05-01T05:51:39.201Z,101547.04
2019-05-01T05:52:51.803Z,101544.00
2019-05-01T05:54:00.936Z,101544.69
2019-05-01T05:55:31.695Z,101544.05
2019-05-01T05:56:45.305Z,101544.39
2019-05-01T05:58:05.855Z,101544.34
2019-05-01T05:59:16.895Z,101546.23
2019-05-01T06:00:34.032Z,101546.34
2019-05-01T06:01:57.540Z,101545.02
2019-05-01T06:03:11.870Z,101549.27
2019-05-01T06:04:40.827Z,101543.62
2019-05-01T06:06:09.357Z,101538.61
2019-05-01T06:07:35.335Z,101541.52
2019-05-01T06:08:43.985Z,101537.41
2019-05-01T06:10:08.992Z,101539.59
2019-05-01T06:11:35.567Z,101539.89
2019-05-01T06:12:54.079Z,101538.44
2019-05-01T06:14:27.019Z,101550.64
2019-05-01T06:15:50.879Z,101541.73
2019-05-01T06:17:18.567Z,101543.44
2019-05-01T06:18:28.753Z,101542.37
2019-05-01T06:19:39.516Z,101540.39
2019-05-01T06:21:07.198Z,101540.55
2019-05-01T06:22:22.567Z,101543.08
2019-05-01T06:23:43.855Z,101543.34
2019-05-01T06:24:51.171Z,101546.12
2019-05-01T06:26:00.054Z,101545.99
2019-05-01T06:27:08.997Z,101545.05
2019-05-01T06:28:14.019Z,101545.78
2019-05-01T06:29:19.323Z,101541.80
2019-05-01T06:30:24.493Z,101548.34
2019-05-01T06:31:29.818Z,101549.92
2019-05-01T06:32:35.026Z,101545.37
2019-05-01T06:33:44.390Z,101545.63
2019-05-01T06:34:47.051Z,101549.02
2019-05-01T06:35:52.342Z,101552.44
2019-05-01T06:36:57.762Z,101547.85
2019-05-01T06:38:09.615Z,101547.76
2019-05-01T06:39:15.071Z,101546.69
2019-05-01T06:40:23.790Z,101547.41
2019-05-01T06:41:33.708Z,101544.66
2019-05-01T06:42:38.948Z,101548.65
2019-05-01T06:44:07.319Z,101549.38
2019-05-01T06:45:16.868Z,101547.95
2019-05-01T06:46:49.253Z,101547.95
2019-05-01T06:48:01.557Z,101549.76
2019-05-01T06:49:29.425Z,101545.77
2019-05-01T06:50:41.483Z,101548.30
2019-05-01T06:51:52.587Z,101553.05
2019-05-01T06:52:55.219Z,101551.59
2019-05-01T06:54:00.737Z,101550.27
2019-05-01T06:55:06.606Z,101545.33
2019-05-01T06:56:11.771Z,101544.16
2019-05-01T06:57:17.181Z,101545.84
2019-05-01T06:58:23.094Z,101544.89
2019-05-01T06:59:31.476Z,101543.31
2019-05-01T07:00:43.133Z,101549.48
2019-05-01T07:01:48.058Z,101557.92
2019-05-01T07:02:55.172Z,101552.70
2019-05-01T07:04:04.127Z,101547.61
2019-05-01T07:05:14.548Z,101557.77
2019-05-01T07:06:19.094Z,101552.92
2019-05-01T07:07:25.603Z,101554.63
2019-05-01T07:08:34.168Z,101555.58
2019-05-01T07:09:39.334Z,101563.45
2019-05-01T07:10:45.932Z,101556.81
2019-05-01T07:11:52.869Z,101559.95
2019-05-01T07:13:05.148Z,101559.47
2019-05-01T07:14:11.139Z,101557.45
2019-05-01T07:15:15.037Z,101561.94
2019-05-01T07:16:20.569Z,101561.34
2019-05-01T07:17:26.080Z,101568.84
2019-05-01T07:18:31.587Z,101566.09
2019-05-01T07:19:53.031Z,101564.76
2019-05-01T07:20:58.309Z,101565.48
2019-05-01T07:22:06.384Z,101559.69
2019-05-01T07:23:12.685Z,101566.24
2019-05-01T07:24:17.465Z,101564.79
2019-05-01T07:25:22.795Z,101559.00
2019-05-01T07:26:28.014Z,101563.71
2019-05-01T07:27:33.143Z,101565.33
2019-05-01T07:28:39.295Z,101561.20
2019-05-01T07:29:46.651Z,101560.26
2019-05-01T07:31:05.193Z,101564.63
2019-05-01T07:32:09.844Z,101566.78
2019-05-01T07:33:16.585Z,101561.59
2019-05-01T07:34:26.240Z,101560.48
2019-05-01T07:35:32.936Z,101561.05
2019-05-01T07:36:36.746Z,101548.36
2019-05-01T07:37:42.543Z,101556.34
2019-05-01T07:38:48.575Z,101557.19
2019-05-01T07:39:53.760Z,101553.68
2019-05-01T07:41:03.299Z,101554.63
2019-05-01T07:42:24.334Z,101554.38
2019-05-01T07:43:46.037Z,101557.89
2019-05-01T07:44:53.263Z,101553.30
2019-05-01T07:46:07.216Z,101554.06
2019-05-01T07:47:32.517Z,101554.19
2019-05-01T07:48:41.564Z,101551.52
2019-05-01T07:49:54.775Z,101555.52
2019-05-01T07:51:01.938Z,101556.37
2019-05-01T07:52:08.101Z,101555.52
2019-05-01T07:53:13.449Z,101550.95
2019-05-01T07:54:19.350Z,101556.52
2019-05-01T07:55:37.019Z,101559.56
2019-05-01T07:56:44.959Z,101554.34
2019-05-01T07:57:49.593Z,101558.23
2019-05-01T07:58:54.765Z,101555.44
2019-05-01T08:00:03.560Z,101556.05
2019-05-01T08:01:31.991Z,101554.47
2019-05-01T08:02:37.291Z,101556.75
2019-05-01T08:03:44.111Z,101551.91
2019-05-01T08:04:49.322Z,101550.20
2019-05-01T08:05:54.769Z,101552.98
2019-05-01T08:06:59.782Z,101552.03
2019-05-01T08:08:07.831Z,101554.78
2019-05-01T08:09:15.234Z,101558.68
2019-05-01T08:10:20.932Z,101552.28
2019-05-01T08:11:26.089Z,101556.42
2019-05-01T08:12:31.721Z,101553.77
2019-05-01T08:13:37.085Z,101551.84
2019-05-01T08:14:42.541Z,101549.40
2019-05-01T08:15:47.753Z,101548.67
2019-05-01T08:16:52.877Z,101552.76
2019-05-01T08:18:11.299Z,101556.37
2019-05-01T08:19:22.062Z,101559.16
2019-05-01T08:20:36.465Z,101561.20
2019-05-01T08:22:01.393Z,101555.03
2019-05-01T08:23:07.622Z,101558.17
2019-05-01T08:24:11.368Z,101554.41
2019-05-01T08:25:16.894Z,101554.16
2019-05-01T08:26:22.090Z,101554.63
2019-05-01T08:27:34.917Z,101558.62
2019-05-01T08:28:57.767Z,101566.02
2019-05-01T08:30:37.230Z,101561.75
2019-05-01T08:31:52.073Z,101563.43
2019-05-01T08:33:29.616Z,101565.02
2019-05-01T08:34:34.815Z,101560.92
2019-05-01T08:35:40.366Z,101560.33
2019-05-01T08:36:47.176Z,101562.60
2019-05-01T08:37:53.726Z,101564.06
2019-05-01T08:38:59.755Z,101569.69
2019-05-01T08:40:05.612Z,101568.97
2019-05-01T08:41:10.837Z,101562.19
2019-05-01T08:42:15.911Z,101565.14
2019-05-01T08:43:21.212Z,101564.76
2019-05-01T08:44:29.562Z,101566.47
2019-05-01T08:45:54.486Z,101567.03
2019-05-01T08:47:11.183Z,101560.02
2019-05-01T08:48:37.589Z,101574.44
2019-05-01T08:49:59.016Z,101569.13
2019-05-01T08:51:04.477Z,101563.43
2019-05-01T08:52:13.686Z,101567.80
2019-05-01T08:53:18.100Z,101564.53
2019-05-01T08:54:24.300Z,101568.39
2019-05-01T08:55:29.811Z,101567.83
2019-05-01T08:56:35.176Z,101565.64
2019-05-01T08:57:40.312Z,101571.69
2019-05-01T08:58:49.428Z,101566.15
2019-05-01T08:59:55.745Z,101567.62
2019-05-01T09:00:59.476Z,101564.53
2019-05-01T09:02:09.359Z,101568.57
2019-05-01T09:03:13.525Z,101565.69
2019-05-01T09:04:19.191Z,101559.29
2019-05-01T09:05:28.904Z,101571.75
2019-05-01T09:06:34.917Z,101570.23
2019-05-01T09:07:38.609Z,101562.98
2019-05-01T09:08:44.215Z,101558.98
2019-05-01T09:09:49.617Z,101562.03
2019-05-01T09:11:00.323Z,101559.46
2019-05-01T09:12:01.947Z,101556.70
2019-05-01T09:13:07.097Z,101557.66
2019-05-01T09:14:12.229Z,101556.80
2019-05-01T09:15:17.989Z,101552.95
2019-05-01T09:16:27.782Z,101556.66
2019-05-01T09:17:30.332Z,101554.98
2019-05-01T09:18:35.766Z,101556.30
2019-05-01T09:19:41.252Z,101555.45
2019-05-01T09:20:48.217Z,101557.12
2019-05-01T09:21:53.366Z,101552.32
2019-05-01T09:22:59.081Z,101553.14
2019-05-01T09:24:04.363Z,101553.89
2019-05-01T09:25:11.241Z,101553.89
2019-05-01T09:26:32.126Z,101548.20
2019-05-01T09:27:44.987Z,101555.70
2019-05-01T09:28:54.952Z,101557.26
2019-05-01T09:30:04.182Z,101554.12
2019-05-01T09:31:11.375Z,101552.66
2019-05-01T09:32:18.708Z,101551.01
2019-05-01T09:33:26.103Z,101552.11
2019-05-01T09:34:48.823Z,101551.88
2019-05-01T09:35:54.017Z,101550.08
2019-05-01T09:36:59.517Z,101548.84
2019-05-01T09:38:04.952Z,101546.06
2019-05-01T09:39:12.368Z,101546.17
2019-05-01T09:40:17.568Z,101543.64
2019-05-01T09:41:22.604Z,101546.48
2019-05-01T09:42:27.901Z,101544.81
2019-05-01T09:43:35.623Z,101545.77
2019-05-01T09:44:40.087Z,101546.39
2019-05-01T09:45:45.782Z,101546.55
2019-05-01T09:46:51.103Z,101551.73
2019-05-01T09:47:56.301Z,101548.13
2019-05-01T09:49:01.525Z,101548.59
2019-05-01T09:50:07.710Z,101550.06
2019-05-01T09:51:22.006Z,101554.05
2019-05-01T09:52:47.728Z,101548.34
2019-05-01T09:54:11.741Z,101541.70
2019-05-01T09:55:31.036Z,101541.84
2019-05-01T09:56:38.336Z,101544.43
2019-05-01T09:57:43.915Z,101541.66
2019-05-01T09:58:49.247Z,101540.23
2019-05-01T09:59:54.726Z,101544.05
2019-05-01T10:01:00.560Z,101542.15
2019-05-01T10:02:07.862Z,101539.77
2019-05-01T10:03:16.890Z,101541.48
2019-05-01T10:04:20.381Z,101535.45
2019-05-01T10:05:29.166Z,101539.55
2019-05-01T10:06:32.550Z,101533.16
2019-05-01T10:07:37.637Z,101535.11
2019-05-01T10:08:42.961Z,101535.22
2019-05-01T10:09:52.166Z,101527.09
2019-05-01T10:10:55.184Z,101527.70
2019-05-01T10:12:00.261Z,101523.81
2019-05-01T10:13:05.684Z,101528.80
2019-05-01T10:14:11.248Z,101531.45
2019-05-01T10:15:16.709Z,101525.03
2019-05-01T10:16:22.034Z,101528.17
2019-05-01T10:17:28.891Z,101524.19
2019-05-01T10:18:34.031Z,101524.19
2019-05-01T10:19:39.408Z,101522.38
2019-05-01T10:20:44.588Z,101526.61
2019-05-01T10:21:49.859Z,101527.80
2019-05-01T10:22:55.115Z,101522.62
2019-05-01T10:24:00.460Z,101521.42
2019-05-01T10:25:08.606Z,101523.74
2019-05-01T10:26:18.955Z,101518.66
2019-05-01T10:27:25.255Z,101512.72
2019-05-01T10:28:36.755Z,101512.48
2019-05-01T10:29:57.050Z,101515.52
2019-05-01T10:31:21.270Z,101514.05
2019-05-01T10:32:33.620Z,101512.98
2019-05-01T10:33:41.540Z,101516.74
2019-05-01T10:35:19.425Z,101516.61
2019-05-01T10:36:40.458Z,101508.88
2019-05-01T10:37:45.786Z,101508.16
2019-05-01T10:38:50.992Z,101504.16
2019-05-01T10:39:56.141Z,101502.20
2019-05-01T10:41:04.293Z,101500.39
2019-05-01T10:42:08.308Z,101503.30
2019-05-01T10:43:13.894Z,101499.67
2019-05-01T10:44:19.655Z,101505.85
2019-05-01T10:45:24.856Z,101505.74
2019-05-01T10:46:30.161Z,101503.08
2019-05-01T10:47:35.582Z,101501.23
2019-05-01T10:48:41.022Z,101497.23
2019-05-01T10:49:46.293Z,101502.70
2019-05-01T10:50:51.634Z,101500.16
2019-05-01T10:51:57.201Z,101501.24
2019-05-01T10:53:02.651Z,101500.87
2019-05-01T10:54:08.164Z,101497.49
2019-05-01T10:55:13.484Z,101498.45
2019-05-01T10:56:19.827Z,101495.45
2019-05-01T10:57:25.210Z,101493.74
2019-05-01T10:58:30.454Z,101495.68
2019-05-01T10:59:35.642Z,101491.67
2019-05-01T11:00:43.021Z,101493.38
2019-05-01T11:01:51.241Z,101487.67
2019-05-01T11:02:56.532Z,101485.14
2019-05-01T11:04:02.141Z,101483.67
2019-05-01T11:05:07.652Z,101478.23
2019-05-01T11:06:13.165Z,101481.13
2019-05-01T11:07:18.988Z,101482.22
2019-05-01T11:08:24.220Z,101485.97
2019-05-01T11:09:29.687Z,101476.75
2019-05-01T11:10:34.847Z,101484.52
2019-05-01T11:11:40.011Z,101481.00
2019-05-01T11:12:45.156Z,101481.34
2019-05-01T11:13:50.416Z,101480.16
2019-05-01T11:14:55.842Z,101478.93
2019-05-01T11:16:01.307Z,101477.97
2019-05-01T11:17:06.567Z,101480.02
2019-05-01T11:18:11.920Z,101480.86
2019-05-01T11:19:17.127Z,101485.72
2019-05-01T11:20:22.672Z,101476.39
2019-05-01T11:21:27.768Z,101476.39
2019-05-01T11:22:33.155Z,101477.95
2019-05-01T11:23:40.129Z,101474.21
2019-05-01T11:24:45.368Z,101481.36
2019-05-01T11:25:50.598Z,101468.88
2019-05-01T11:26:56.363Z,101468.88
2019-05-01T11:28:01.531Z,101470.44
2019-05-01T11:29:07.192Z,101471.30
2019-05-01T11:30:12.945Z,101462.67
2019-05-01T11:31:21.942Z,101466.31
2019-05-01T11:32:45.828Z,101470.29
2019-05-01T11:34:10.422Z,101466.52
2019-05-01T11:35:40.630Z,101468.09
2019-05-01T11:37:03.674Z,101467.80
2019-05-01T11:38:19.870Z,101468.52
2019-05-01T11:39:35.903Z,101463.63
2019-05-01T11:40:41.158Z,101462.66
2019-05-01T11:41:52.617Z,101461.47
2019-05-01T11:42:58.005Z,101462.21
2019-05-01T11:44:03.486Z,101455.66
2019-05-01T11:45:10.213Z,101455.80
2019-05-01T11:46:15.872Z,101462.21
2019-05-01T11:47:20.967Z,101462.70
2019-05-01T11:48:30.241Z,101458.47
2019-05-01T11:49:33.461Z,101460.06
2019-05-01T11:50:38.720Z,101459.80
2019-05-01T11:51:44.182Z,101458.36
2019-05-01T11:52:49.908Z,101452.05
2019-05-01T11:53:55.210Z,101455.88
2019-05-01T11:55:00.436Z,101458.41
2019-05-01T11:56:05.780Z,101453.87
2019-05-01T11:57:11.094Z,101452.28
2019-05-01T11:58:16.196Z,101453.98
2019-05-01T11:59:21.346Z,101450.95
2019-05-01T12:00:26.669Z,101458.62
2019-05-01T12:01:31.973Z,101455.21
2019-05-01T12:02:37.152Z,101451.84
2019-05-01T12:03:42.408Z,101455.14
2019-05-01T12:04:47.516Z,101451.39
2019-05-01T12:05:52.719Z,101450.66
2019-05-01T12:06:57.880Z,101455.62
2019-05-01T12:08:03.290Z,101450.66
2019-05-01T12:09:08.861Z,101445.80
2019-05-01T12:10:15.041Z,101443.09
2019-05-01T12:11:22.141Z,101452.39
2019-05-01T12:12:29.070Z,101452.50
2019-05-01T12:13:43.489Z,101446.31
2019-05-01T12:14:42.987Z,101446.80
2019-05-01T12:15:53.543Z,101446.80
2019-05-01T12:17:08.550Z,101441.83
2019-05-01T12:18:13.794Z,101445.83
2019-05-01T12:19:19.008Z,101446.45
2019-05-01T12:20:24.429Z,101445.02
2019-05-01T12:21:29.801Z,101443.94
2019-05-01T12:22:34.835Z,101448.28
2019-05-01T12:23:40.185Z,101448.28
2019-05-01T12:24:45.599Z,101450.36
2019-05-01T12:25:51.093Z,101443.42
2019-05-01T12:26:56.416Z,101441.45
2019-05-01T12:28:01.678Z,101444.38
2019-05-01T12:29:06.921Z,101442.27
2019-05-01T12:30:16.128Z,101444.70
2019-05-01T12:31:21.569Z,101447.01
2019-05-01T12:32:26.925Z,101439.26
2019-05-01T12:33:32.548Z,101436.97
2019-05-01T12:34:37.961Z,101433.11
2019-05-01T12:35:45.172Z,101435.03
2019-05-01T12:36:52.030Z,101434.63
2019-05-01T12:38:00.205Z,101431.20
2019-05-01T12:39:08.745Z,101426.09
2019-05-01T12:40:17.170Z,101429.94
2019-05-01T12:41:39.445Z,101425.40
2019-05-01T12:42:45.291Z,101427.20
2019-05-01T12:43:50.526Z,101425.87
2019-05-01T12:44:55.875Z,101428.92
2019-05-01T12:46:01.146Z,101423.63
2019-05-01T12:47:13.635Z,101416.48
2019-05-01T12:48:18.627Z,101418.19
2019-05-01T12:49:23.729Z,101414.55
2019-05-01T12:50:29.281Z,101413.43
2019-05-01T12:51:34.902Z,101413.31
2019-05-01T12:53:14.235Z,101410.64
2019-05-01T12:54:38.345Z,101409.16
2019-05-01T12:56:05.244Z,101411.08
2019-05-01T12:57:11.055Z,101418.12
2019-05-01T12:58:16.287Z,101411.66
2019-05-01T12:59:22.021Z,101409.94
2019-05-01T13:00:42.602Z,101402.73
2019-05-01T13:01:47.911Z,101400.86